sensor_id;sensor_type;location;lat;lon;timestamp;P1;durP1;ratioP1;P2;durP2;ratioP2
52730;SDS011;38624;53.242;6.974;2022-07-18T00:04:00;11.90;;;4.60;;
52730;SDS011;38624;53.242;6.974;2022-07-18T00:06:26;8.20;;;4.97;;
52730;SDS011;38624;53.242;6.974;2022-07-18T00:08:52;7.65;;;4.63;;
52730;SDS011;38624;53.242;6.974;2022-07-18T00:11:18;7.65;;;4.78;;
52730;SDS011;38624;53.242;6.974;2022-07-18T00:13:45;7.47;;;4.72;;
52730;SDS011;38624;53.242;6.974;2022-07-18T00:16:10;6.40;;;4.73;;
52730;SDS011;38624;53.242;6.974;2022-07-18T00:18:36;11.07;;;5.23;;
52730;SDS011;38624;53.242;6.974;2022-07-18T00:21:02;9.43;;;5.13;;
52730;SDS011;38624;53.242;6.974;2022-07-18T00:23:28;10.67;;;4.90;;
52730;SDS011;38624;53.242;6.974;2022-07-18T00:25:54;8.50;;;5.20;;
52730;SDS011;38624;53.242;6.974;2022-07-18T00:28:19;7.77;;;4.87;;
52730;SDS011;38624;53.242;6.974;2022-07-18T00:30:45;10.67;;;5.60;;
52730;SDS011;38624;53.242;6.974;2022-07-18T00:33:11;9.30;;;5.57;;
52730;SDS011;38624;53.242;6.974;2022-07-18T00:35:37;9.60;;;5.00;;
52730;SDS011;38624;53.242;6.974;2022-07-18T00:38:03;9.53;;;5.40;;
52730;SDS011;38624;53.242;6.974;2022-07-18T00:40:29;8.63;;;5.30;;
52730;SDS011;38624;53.242;6.974;2022-07-18T00:42:57;9.52;;;5.10;;
52730;SDS011;38624;53.242;6.974;2022-07-18T00:45:23;9.70;;;5.60;;
52730;SDS011;38624;53.242;6.974;2022-07-18T00:47:49;8.80;;;5.53;;
52730;SDS011;38624;53.242;6.974;2022-07-18T00:50:18;10.60;;;5.40;;
52730;SDS011;38624;53.242;6.974;2022-07-18T00:52:45;7.93;;;5.72;;
52730;SDS011;38624;53.242;6.974;2022-07-18T00:55:11;12.20;;;5.65;;
52730;SDS011;38624;53.242;6.974;2022-07-18T00:57:37;8.73;;;5.85;;
52730;SDS011;38624;53.242;6.974;2022-07-18T01:00:09;8.63;;;5.22;;
52730;SDS011;38624;53.242;6.974;2022-07-18T01:02:56;10.40;;;6.60;;
52730;SDS011;38624;53.242;6.974;2022-07-18T01:05:22;10.43;;;5.93;;
52730;SDS011;38624;53.242;6.974;2022-07-18T01:07:49;8.57;;;5.90;;
52730;SDS011;38624;53.242;6.974;2022-07-18T01:10:15;10.20;;;6.15;;
52730;SDS011;38624;53.242;6.974;2022-07-18T01:12:40;8.73;;;5.53;;
52730;SDS011;38624;53.242;6.974;2022-07-18T01:15:06;9.93;;;5.63;;
52730;SDS011;38624;53.242;6.974;2022-07-18T01:17:32;8.18;;;5.70;;
52730;SDS011;38624;53.242;6.974;2022-07-18T01:19:58;11.70;;;6.00;;
52730;SDS011;38624;53.242;6.974;2022-07-18T01:22:24;8.03;;;5.77;;
52730;SDS011;38624;53.242;6.974;2022-07-18T01:24:49;9.90;;;6.37;;
52730;SDS011;38624;53.242;6.974;2022-07-18T01:27:20;8.45;;;5.95;;
52730;SDS011;38624;53.242;6.974;2022-07-18T01:29:48;9.80;;;6.22;;
52730;SDS011;38624;53.242;6.974;2022-07-18T01:32:15;9.25;;;6.22;;
52730;SDS011;38624;53.242;6.974;2022-07-18T01:34:41;8.93;;;5.63;;
52730;SDS011;38624;53.242;6.974;2022-07-18T01:37:08;12.70;;;5.88;;
52730;SDS011;38624;53.242;6.974;2022-07-18T01:39:34;8.60;;;6.70;;
52730;SDS011;38624;53.242;6.974;2022-07-18T01:42:02;10.02;;;6.00;;
52730;SDS011;38624;53.242;6.974;2022-07-18T01:44:30;9.30;;;5.88;;
52730;SDS011;38624;53.242;6.974;2022-07-18T01:46:57;9.60;;;6.18;;
52730;SDS011;38624;53.242;6.974;2022-07-18T01:49:23;9.32;;;5.78;;
52730;SDS011;38624;53.242;6.974;2022-07-18T01:51:50;8.18;;;6.10;;
52730;SDS011;38624;53.242;6.974;2022-07-18T01:54:21;10.75;;;6.10;;
52730;SDS011;38624;53.242;6.974;2022-07-18T01:56:48;11.30;;;6.53;;
52730;SDS011;38624;53.242;6.974;2022-07-18T01:59:14;13.23;;;6.32;;
52730;SDS011;38624;53.242;6.974;2022-07-18T02:01:40;12.93;;;6.50;;
52730;SDS011;38624;53.242;6.974;2022-07-18T02:04:06;12.27;;;6.10;;
52730;SDS011;38624;53.242;6.974;2022-07-18T02:06:32;10.57;;;5.80;;
52730;SDS011;38624;53.242;6.974;2022-07-18T02:08:57;9.27;;;6.20;;
52730;SDS011;38624;53.242;6.974;2022-07-18T02:11:23;11.90;;;6.13;;
52730;SDS011;38624;53.242;6.974;2022-07-18T02:13:49;8.60;;;5.67;;
52730;SDS011;38624;53.242;6.974;2022-07-18T02:16:15;9.20;;;5.88;;
52730;SDS011;38624;53.242;6.974;2022-07-18T02:18:41;12.13;;;6.40;;
52730;SDS011;38624;53.242;6.974;2022-07-18T02:21:07;10.13;;;6.17;;
52730;SDS011;38624;53.242;6.974;2022-07-18T02:23:33;9.00;;;5.70;;
52730;SDS011;38624;53.242;6.974;2022-07-18T02:25:59;9.52;;;6.38;;
52730;SDS011;38624;53.242;6.974;2022-07-18T02:28:25;8.98;;;6.20;;
52730;SDS011;38624;53.242;6.974;2022-07-18T02:30:51;9.40;;;5.70;;
52730;SDS011;38624;53.242;6.974;2022-07-18T02:33:17;10.07;;;6.03;;
52730;SDS011;38624;53.242;6.974;2022-07-18T02:35:43;13.87;;;6.67;;
52730;SDS011;38624;53.242;6.974;2022-07-18T02:38:09;10.57;;;6.72;;
52730;SDS011;38624;53.242;6.974;2022-07-18T02:40:35;11.15;;;6.60;;
52730;SDS011;38624;53.242;6.974;2022-07-18T02:43:01;10.27;;;6.27;;
52730;SDS011;38624;53.242;6.974;2022-07-18T02:45:27;15.13;;;6.50;;
52730;SDS011;38624;53.242;6.974;2022-07-18T02:47:54;10.70;;;5.88;;
52730;SDS011;38624;53.242;6.974;2022-07-18T02:50:19;10.13;;;6.50;;
52730;SDS011;38624;53.242;6.974;2022-07-18T02:52:45;10.73;;;6.13;;
52730;SDS011;38624;53.242;6.974;2022-07-18T02:55:12;10.67;;;5.90;;
52730;SDS011;38624;53.242;6.974;2022-07-18T02:57:39;10.55;;;6.40;;
52730;SDS011;38624;53.242;6.974;2022-07-18T03:02:32;11.03;;;6.23;;
52730;SDS011;38624;53.242;6.974;2022-07-18T03:04:58;11.23;;;6.50;;
52730;SDS011;38624;53.242;6.974;2022-07-18T03:07:24;12.53;;;6.70;;
52730;SDS011;38624;53.242;6.974;2022-07-18T03:09:50;10.70;;;6.53;;
52730;SDS011;38624;53.242;6.974;2022-07-18T03:12:16;10.27;;;6.70;;
52730;SDS011;38624;53.242;6.974;2022-07-18T03:14:42;12.88;;;6.82;;
52730;SDS011;38624;53.242;6.974;2022-07-18T03:17:08;9.73;;;6.53;;
52730;SDS011;38624;53.242;6.974;2022-07-18T03:19:34;10.10;;;6.80;;
52730;SDS011;38624;53.242;6.974;2022-07-18T03:22:00;9.10;;;6.35;;
52730;SDS011;38624;53.242;6.974;2022-07-18T03:24:26;11.40;;;6.40;;
52730;SDS011;38624;53.242;6.974;2022-07-18T03:26:52;8.33;;;5.80;;
52730;SDS011;38624;53.242;6.974;2022-07-18T03:29:18;10.43;;;6.73;;
52730;SDS011;38624;53.242;6.974;2022-07-18T03:31:44;11.30;;;6.50;;
52730;SDS011;38624;53.242;6.974;2022-07-18T03:34:10;12.93;;;6.23;;
52730;SDS011;38624;53.242;6.974;2022-07-18T03:36:35;12.30;;;6.43;;
52730;SDS011;38624;53.242;6.974;2022-07-18T03:39:02;11.52;;;6.90;;
52730;SDS011;38624;53.242;6.974;2022-07-18T03:43:54;10.20;;;6.70;;
52730;SDS011;38624;53.242;6.974;2022-07-18T03:46:20;10.43;;;6.87;;
52730;SDS011;38624;53.242;6.974;2022-07-18T03:48:46;12.60;;;6.60;;
52730;SDS011;38624;53.242;6.974;2022-07-18T03:51:12;11.17;;;6.67;;
52730;SDS011;38624;53.242;6.974;2022-07-18T03:53:38;14.65;;;6.82;;
52730;SDS011;38624;53.242;6.974;2022-07-18T03:56:04;11.60;;;6.10;;
52730;SDS011;38624;53.242;6.974;2022-07-18T03:58:30;13.70;;;6.60;;
52730;SDS011;38624;53.242;6.974;2022-07-18T04:00:55;15.13;;;6.93;;
52730;SDS011;38624;53.242;6.974;2022-07-18T04:03:21;11.83;;;6.63;;
52730;SDS011;38624;53.242;6.974;2022-07-18T04:05:48;13.52;;;6.28;;
52730;SDS011;38624;53.242;6.974;2022-07-18T04:08:14;15.32;;;6.63;;
52730;SDS011;38624;53.242;6.974;2022-07-18T04:10:40;12.73;;;6.15;;
52730;SDS011;38624;53.242;6.974;2022-07-18T04:13:06;12.87;;;6.20;;
52730;SDS011;38624;53.242;6.974;2022-07-18T04:15:33;11.60;;;6.30;;
52730;SDS011;38624;53.242;6.974;2022-07-18T04:17:59;10.93;;;6.43;;
52730;SDS011;38624;53.242;6.974;2022-07-18T04:20:24;10.57;;;6.13;;
52730;SDS011;38624;53.242;6.974;2022-07-18T04:22:51;10.33;;;6.17;;
52730;SDS011;38624;53.242;6.974;2022-07-18T04:25:20;14.95;;;6.38;;
52730;SDS011;38624;53.242;6.974;2022-07-18T04:27:48;12.32;;;6.85;;
52730;SDS011;38624;53.242;6.974;2022-07-18T04:30:15;13.25;;;6.47;;
52730;SDS011;38624;53.242;6.974;2022-07-18T04:32:42;11.32;;;6.43;;
52730;SDS011;38624;53.242;6.974;2022-07-18T04:35:08;15.50;;;6.93;;
52730;SDS011;38624;53.242;6.974;2022-07-18T04:37:34;15.48;;;6.80;;
52730;SDS011;38624;53.242;6.974;2022-07-18T04:40:00;15.93;;;6.72;;
52730;SDS011;38624;53.242;6.974;2022-07-18T04:42:27;18.40;;;7.43;;
52730;SDS011;38624;53.242;6.974;2022-07-18T04:44:55;15.60;;;6.75;;
52730;SDS011;38624;53.242;6.974;2022-07-18T04:47:21;12.47;;;6.33;;
52730;SDS011;38624;53.242;6.974;2022-07-18T04:49:46;13.27;;;6.57;;
52730;SDS011;38624;53.242;6.974;2022-07-18T04:52:12;8.63;;;6.20;;
52730;SDS011;38624;53.242;6.974;2022-07-18T04:54:38;11.87;;;6.43;;
52730;SDS011;38624;53.242;6.974;2022-07-18T04:57:03;15.70;;;6.60;;
52730;SDS011;38624;53.242;6.974;2022-07-18T04:59:29;10.37;;;6.47;;
52730;SDS011;38624;53.242;6.974;2022-07-18T05:01:55;12.80;;;6.33;;
52730;SDS011;38624;53.242;6.974;2022-07-18T05:04:20;13.30;;;6.67;;
52730;SDS011;38624;53.242;6.974;2022-07-18T05:06:46;14.07;;;6.77;;
52730;SDS011;38624;53.242;6.974;2022-07-18T05:09:12;11.73;;;6.30;;
52730;SDS011;38624;53.242;6.974;2022-07-18T05:11:37;10.00;;;6.70;;
52730;SDS011;38624;53.242;6.974;2022-07-18T05:14:04;8.82;;;5.97;;
52730;SDS011;38624;53.242;6.974;2022-07-18T05:16:30;18.23;;;6.30;;
52730;SDS011;38624;53.242;6.974;2022-07-18T05:18:56;17.03;;;5.70;;
52730;SDS011;38624;53.242;6.974;2022-07-18T05:21:21;11.37;;;5.97;;
52730;SDS011;38624;53.242;6.974;2022-07-18T05:23:47;14.30;;;6.57;;
52730;SDS011;38624;53.242;6.974;2022-07-18T05:26:13;10.80;;;6.03;;
52730;SDS011;38624;53.242;6.974;2022-07-18T05:28:38;11.20;;;5.60;;
52730;SDS011;38624;53.242;6.974;2022-07-18T05:31:04;8.87;;;5.67;;
52730;SDS011;38624;53.242;6.974;2022-07-18T05:33:30;9.03;;;5.50;;
52730;SDS011;38624;53.242;6.974;2022-07-18T05:35:56;10.60;;;6.40;;
52730;SDS011;38624;53.242;6.974;2022-07-18T05:38:21;11.40;;;5.77;;
52730;SDS011;38624;53.242;6.974;2022-07-18T05:40:47;9.10;;;5.60;;
52730;SDS011;38624;53.242;6.974;2022-07-18T05:43:13;7.83;;;5.03;;
52730;SDS011;38624;53.242;6.974;2022-07-18T05:45:39;7.07;;;4.80;;
52730;SDS011;38624;53.242;6.974;2022-07-18T05:48:06;8.40;;;4.90;;
52730;SDS011;38624;53.242;6.974;2022-07-18T05:50:32;10.98;;;4.80;;
52730;SDS011;38624;53.242;6.974;2022-07-18T05:52:58;10.07;;;5.45;;
52730;SDS011;38624;53.242;6.974;2022-07-18T05:55:24;9.20;;;5.30;;
52730;SDS011;38624;53.242;6.974;2022-07-18T05:57:50;9.93;;;4.90;;
52730;SDS011;38624;53.242;6.974;2022-07-18T06:00:17;9.18;;;5.00;;
52730;SDS011;38624;53.242;6.974;2022-07-18T06:02:44;8.15;;;4.82;;
52730;SDS011;38624;53.242;6.974;2022-07-18T06:05:11;7.35;;;4.72;;
52730;SDS011;38624;53.242;6.974;2022-07-18T06:07:37;9.63;;;4.90;;
52730;SDS011;38624;53.242;6.974;2022-07-18T06:10:03;7.07;;;4.70;;
52730;SDS011;38624;53.242;6.974;2022-07-18T06:12:29;8.90;;;4.50;;
52730;SDS011;38624;53.242;6.974;2022-07-18T06:14:56;5.90;;;4.10;;
52730;SDS011;38624;53.242;6.974;2022-07-18T06:17:22;6.18;;;4.30;;
52730;SDS011;38624;53.242;6.974;2022-07-18T06:19:48;8.17;;;4.60;;
52730;SDS011;38624;53.242;6.974;2022-07-18T06:22:13;7.07;;;3.80;;
52730;SDS011;38624;53.242;6.974;2022-07-18T06:24:39;9.30;;;4.00;;
52730;SDS011;38624;53.242;6.974;2022-07-18T06:27:05;4.90;;;3.53;;
52730;SDS011;38624;53.242;6.974;2022-07-18T06:29:31;6.37;;;4.07;;
52730;SDS011;38624;53.242;6.974;2022-07-18T06:31:57;5.50;;;4.23;;
52730;SDS011;38624;53.242;6.974;2022-07-18T06:34:22;7.13;;;3.40;;
52730;SDS011;38624;53.242;6.974;2022-07-18T06:36:48;9.77;;;3.07;;
52730;SDS011;38624;53.242;6.974;2022-07-18T06:39:14;5.70;;;3.37;;
52730;SDS011;38624;53.242;6.974;2022-07-18T06:41:41;6.60;;;3.40;;
52730;SDS011;38624;53.242;6.974;2022-07-18T06:44:07;6.22;;;3.65;;
52730;SDS011;38624;53.242;6.974;2022-07-18T06:46:33;6.90;;;3.20;;
52730;SDS011;38624;53.242;6.974;2022-07-18T06:48:59;7.20;;;3.43;;
52730;SDS011;38624;53.242;6.974;2022-07-18T06:51:24;8.13;;;3.47;;
52730;SDS011;38624;53.242;6.974;2022-07-18T06:53:50;4.60;;;2.90;;
52730;SDS011;38624;53.242;6.974;2022-07-18T06:56:16;5.50;;;3.10;;
52730;SDS011;38624;53.242;6.974;2022-07-18T06:58:42;6.50;;;3.38;;
52730;SDS011;38624;53.242;6.974;2022-07-18T07:01:14;6.97;;;3.17;;
52730;SDS011;38624;53.242;6.974;2022-07-18T07:03:40;6.13;;;3.20;;
52730;SDS011;38624;53.242;6.974;2022-07-18T07:06:05;6.63;;;2.97;;
52730;SDS011;38624;53.242;6.974;2022-07-18T07:08:31;5.90;;;3.27;;
52730;SDS011;38624;53.242;6.974;2022-07-18T07:10:57;7.37;;;3.30;;
52730;SDS011;38624;53.242;6.974;2022-07-18T07:13:23;5.73;;;3.13;;
52730;SDS011;38624;53.242;6.974;2022-07-18T07:15:48;6.35;;;3.33;;
52730;SDS011;38624;53.242;6.974;2022-07-18T07:18:14;6.57;;;3.00;;
52730;SDS011;38624;53.242;6.974;2022-07-18T07:20:40;4.77;;;2.80;;
52730;SDS011;38624;53.242;6.974;2022-07-18T07:23:05;9.57;;;3.07;;
52730;SDS011;38624;53.242;6.974;2022-07-18T07:25:35;7.05;;;3.15;;
52730;SDS011;38624;53.242;6.974;2022-07-18T07:28:02;7.95;;;3.42;;
52730;SDS011;38624;53.242;6.974;2022-07-18T07:30:29;6.15;;;3.28;;
52730;SDS011;38624;53.242;6.974;2022-07-18T07:32:55;5.70;;;3.23;;
52730;SDS011;38624;53.242;6.974;2022-07-18T07:35:21;7.50;;;3.42;;
52730;SDS011;38624;53.242;6.974;2022-07-18T07:37:48;6.82;;;3.30;;
52730;SDS011;38624;53.242;6.974;2022-07-18T07:40:17;5.63;;;3.17;;
52730;SDS011;38624;53.242;6.974;2022-07-18T07:42:43;7.43;;;3.72;;
52730;SDS011;38624;53.242;6.974;2022-07-18T07:45:09;5.97;;;3.70;;
52730;SDS011;38624;53.242;6.974;2022-07-18T07:50:02;9.70;;;3.25;;
52730;SDS011;38624;53.242;6.974;2022-07-18T07:52:29;6.65;;;2.63;;
52730;SDS011;38624;53.242;6.974;2022-07-18T07:54:55;6.07;;;2.63;;
52730;SDS011;38624;53.242;6.974;2022-07-18T07:57:21;4.47;;;2.20;;
52730;SDS011;38624;53.242;6.974;2022-07-18T07:59:46;4.00;;;2.25;;
52730;SDS011;38624;53.242;6.974;2022-07-18T08:02:12;8.23;;;2.70;;
52730;SDS011;38624;53.242;6.974;2022-07-18T08:04:40;6.63;;;2.53;;
52730;SDS011;38624;53.242;6.974;2022-07-18T08:07:06;5.15;;;2.50;;
52730;SDS011;38624;53.242;6.974;2022-07-18T08:09:32;5.97;;;2.60;;
52730;SDS011;38624;53.242;6.974;2022-07-18T08:11:58;8.20;;;2.80;;
52730;SDS011;38624;53.242;6.974;2022-07-18T08:14:23;5.63;;;2.80;;
52730;SDS011;38624;53.242;6.974;2022-07-18T08:16:49;6.40;;;2.90;;
52730;SDS011;38624;53.242;6.974;2022-07-18T08:19:15;6.43;;;2.50;;
52730;SDS011;38624;53.242;6.974;2022-07-18T08:21:40;12.90;;;2.80;;
52730;SDS011;38624;53.242;6.974;2022-07-18T08:24:06;5.60;;;2.00;;
52730;SDS011;38624;53.242;6.974;2022-07-18T08:26:32;6.30;;;2.30;;
52730;SDS011;38624;53.242;6.974;2022-07-18T08:29:00;4.78;;;2.17;;
52730;SDS011;38624;53.242;6.974;2022-07-18T08:31:27;6.03;;;1.98;;
52730;SDS011;38624;53.242;6.974;2022-07-18T08:33:53;4.63;;;1.92;;
52730;SDS011;38624;53.242;6.974;2022-07-18T08:36:18;6.13;;;2.10;;
52730;SDS011;38624;53.242;6.974;2022-07-18T08:38:45;5.82;;;2.00;;
52730;SDS011;38624;53.242;6.974;2022-07-18T08:41:11;5.05;;;2.05;;
52730;SDS011;38624;53.242;6.974;2022-07-18T08:43:39;4.22;;;1.80;;
52730;SDS011;38624;53.242;6.974;2022-07-18T08:46:05;3.67;;;1.88;;
52730;SDS011;38624;53.242;6.974;2022-07-18T08:48:32;7.65;;;1.90;;
52730;SDS011;38624;53.242;6.974;2022-07-18T08:50:58;5.40;;;1.95;;
52730;SDS011;38624;53.242;6.974;2022-07-18T08:53:25;3.60;;;1.83;;
52730;SDS011;38624;53.242;6.974;2022-07-18T08:55:52;5.80;;;1.60;;
52730;SDS011;38624;53.242;6.974;2022-07-18T09:00:44;5.65;;;1.58;;
52730;SDS011;38624;53.242;6.974;2022-07-18T09:05:36;5.80;;;1.33;;
52730;SDS011;38624;53.242;6.974;2022-07-18T09:08:18;3.97;;;1.48;;
52730;SDS011;38624;53.242;6.974;2022-07-18T09:10:58;5.15;;;1.45;;
52730;SDS011;38624;53.242;6.974;2022-07-18T09:16:06;3.08;;;1.30;;
52730;SDS011;38624;53.242;6.974;2022-07-18T09:18:38;4.03;;;1.30;;
52730;SDS011;38624;53.242;6.974;2022-07-18T09:21:15;3.92;;;1.38;;
52730;SDS011;38624;53.242;6.974;2022-07-18T09:23:44;3.25;;;1.50;;
52730;SDS011;38624;53.242;6.974;2022-07-18T09:29:07;4.93;;;1.55;;
52730;SDS011;38624;53.242;6.974;2022-07-18T09:31:33;3.80;;;1.50;;
52730;SDS011;38624;53.242;6.974;2022-07-18T09:34:03;4.88;;;1.50;;
52730;SDS011;38624;53.242;6.974;2022-07-18T09:36:30;3.60;;;1.60;;
52730;SDS011;38624;53.242;6.974;2022-07-18T09:39:01;6.78;;;1.65;;
52730;SDS011;38624;53.242;6.974;2022-07-18T09:41:45;5.57;;;1.40;;
52730;SDS011;38624;53.242;6.974;2022-07-18T09:44:17;3.60;;;1.38;;
52730;SDS011;38624;53.242;6.974;2022-07-18T09:47:00;6.13;;;1.70;;
52730;SDS011;38624;53.242;6.974;2022-07-18T09:49:31;3.55;;;1.40;;
52730;SDS011;38624;53.242;6.974;2022-07-18T09:52:04;4.25;;;1.60;;
52730;SDS011;38624;53.242;6.974;2022-07-18T09:54:35;6.05;;;1.90;;
52730;SDS011;38624;53.242;6.974;2022-07-18T09:57:04;5.40;;;1.73;;
52730;SDS011;38624;53.242;6.974;2022-07-18T09:59:30;3.40;;;1.40;;
52730;SDS011;38624;53.242;6.974;2022-07-18T10:01:58;4.80;;;1.40;;
52730;SDS011;38624;53.242;6.974;2022-07-18T10:06:49;3.47;;;1.52;;
52730;SDS011;38624;53.242;6.974;2022-07-18T10:09:15;3.42;;;1.30;;
52730;SDS011;38624;53.242;6.974;2022-07-18T10:11:41;5.53;;;1.65;;
52730;SDS011;38624;53.242;6.974;2022-07-18T10:14:08;5.53;;;1.80;;
52730;SDS011;38624;53.242;6.974;2022-07-18T10:16:34;6.55;;;1.58;;
52730;SDS011;38624;53.242;6.974;2022-07-18T10:19:02;2.67;;;1.50;;
52730;SDS011;38624;53.242;6.974;2022-07-18T10:21:28;5.60;;;1.50;;
52730;SDS011;38624;53.242;6.974;2022-07-18T10:23:55;4.90;;;1.42;;
52730;SDS011;38624;53.242;6.974;2022-07-18T10:26:25;4.30;;;1.60;;
52730;SDS011;38624;53.242;6.974;2022-07-18T10:31:21;6.18;;;1.60;;
52730;SDS011;38624;53.242;6.974;2022-07-18T10:36:14;3.95;;;1.65;;
52730;SDS011;38624;53.242;6.974;2022-07-18T10:41:31;5.20;;;1.50;;
52730;SDS011;38624;53.242;6.974;2022-07-18T10:52:58;7.72;;;1.58;;
52730;SDS011;38624;53.242;6.974;2022-07-18T11:00:37;6.82;;;1.70;;
52730;SDS011;38624;53.242;6.974;2022-07-18T11:03:09;4.53;;;1.92;;
52730;SDS011;38624;53.242;6.974;2022-07-18T11:05:38;3.03;;;1.90;;
52730;SDS011;38624;53.242;6.974;2022-07-18T11:15:55;4.97;;;2.25;;
52730;SDS011;38624;53.242;6.974;2022-07-18T11:21:16;7.43;;;2.20;;
52730;SDS011;38624;53.242;6.974;2022-07-18T11:23:59;4.55;;;1.92;;
52730;SDS011;38624;53.242;6.974;2022-07-18T11:26:31;6.65;;;2.65;;
52730;SDS011;38624;53.242;6.974;2022-07-18T11:31:31;5.80;;;2.53;;
52730;SDS011;38624;53.242;6.974;2022-07-18T11:34:07;5.72;;;2.35;;
52730;SDS011;38624;53.242;6.974;2022-07-18T11:36:33;5.93;;;2.47;;
52730;SDS011;38624;53.242;6.974;2022-07-18T11:39:00;4.93;;;2.20;;
52730;SDS011;38624;53.242;6.974;2022-07-18T11:41:28;4.47;;;2.60;;
52730;SDS011;38624;53.242;6.974;2022-07-18T11:43:54;4.53;;;2.63;;
52730;SDS011;38624;53.242;6.974;2022-07-18T11:46:21;6.70;;;2.70;;
52730;SDS011;38624;53.242;6.974;2022-07-18T11:48:49;6.25;;;2.70;;
52730;SDS011;38624;53.242;6.974;2022-07-18T11:51:32;4.10;;;2.55;;
52730;SDS011;38624;53.242;6.974;2022-07-18T11:54:00;6.65;;;3.13;;
52730;SDS011;38624;53.242;6.974;2022-07-18T11:56:25;11.10;;;3.50;;
52730;SDS011;38624;53.242;6.974;2022-07-18T11:58:51;4.70;;;2.63;;
52730;SDS011;38624;53.242;6.974;2022-07-18T12:01:18;4.90;;;2.85;;
52730;SDS011;38624;53.242;6.974;2022-07-18T12:03:45;5.10;;;3.03;;
52730;SDS011;38624;53.242;6.974;2022-07-18T12:08:41;6.10;;;2.78;;
52730;SDS011;38624;53.242;6.974;2022-07-18T12:11:14;4.82;;;2.78;;
52730;SDS011;38624;53.242;6.974;2022-07-18T12:13:53;4.95;;;2.80;;
52730;SDS011;38624;53.242;6.974;2022-07-18T12:18:53;5.53;;;2.80;;
52730;SDS011;38624;53.242;6.974;2022-07-18T12:24:22;6.47;;;3.13;;
52730;SDS011;38624;53.242;6.974;2022-07-18T12:27:07;4.45;;;3.13;;
52730;SDS011;38624;53.242;6.974;2022-07-18T12:29:53;6.97;;;2.92;;
52730;SDS011;38624;53.242;6.974;2022-07-18T12:32:21;6.00;;;3.10;;
52730;SDS011;38624;53.242;6.974;2022-07-18T12:34:56;5.60;;;3.10;;
52730;SDS011;38624;53.242;6.974;2022-07-18T12:37:26;5.82;;;2.78;;
52730;SDS011;38624;53.242;6.974;2022-07-18T12:40:05;4.45;;;2.78;;
52730;SDS011;38624;53.242;6.974;2022-07-18T12:42:34;4.38;;;2.80;;
52730;SDS011;38624;53.242;6.974;2022-07-18T12:45:02;6.47;;;2.70;;
52730;SDS011;38624;53.242;6.974;2022-07-18T12:47:29;6.18;;;2.95;;
52730;SDS011;38624;53.242;6.974;2022-07-18T12:49:55;6.43;;;2.80;;
52730;SDS011;38624;53.242;6.974;2022-07-18T12:52:21;8.93;;;2.90;;
52730;SDS011;38624;53.242;6.974;2022-07-18T12:54:48;6.93;;;3.22;;
52730;SDS011;38624;53.242;6.974;2022-07-18T12:57:14;4.90;;;2.67;;
52730;SDS011;38624;53.242;6.974;2022-07-18T12:59:40;5.05;;;3.00;;
52730;SDS011;38624;53.242;6.974;2022-07-18T13:02:06;4.35;;;2.50;;
52730;SDS011;38624;53.242;6.974;2022-07-18T13:04:32;3.78;;;2.58;;
52730;SDS011;38624;53.242;6.974;2022-07-18T13:06:58;5.15;;;2.90;;
52730;SDS011;38624;53.242;6.974;2022-07-18T13:09:23;4.43;;;2.90;;
52730;SDS011;38624;53.242;6.974;2022-07-18T13:11:49;4.88;;;2.88;;
52730;SDS011;38624;53.242;6.974;2022-07-18T13:14:15;3.90;;;2.72;;
52730;SDS011;38624;53.242;6.974;2022-07-18T13:16:45;7.30;;;2.70;;
52730;SDS011;38624;53.242;6.974;2022-07-18T13:19:16;3.50;;;2.58;;
52730;SDS011;38624;53.242;6.974;2022-07-18T13:21:42;4.38;;;2.80;;
52730;SDS011;38624;53.242;6.974;2022-07-18T13:24:10;5.93;;;2.58;;
52730;SDS011;38624;53.242;6.974;2022-07-18T13:26:36;4.30;;;2.50;;
52730;SDS011;38624;53.242;6.974;2022-07-18T13:29:03;5.72;;;2.72;;
52730;SDS011;38624;53.242;6.974;2022-07-18T13:31:29;5.50;;;3.08;;
52730;SDS011;38624;53.242;6.974;2022-07-18T13:33:55;4.28;;;2.88;;
52730;SDS011;38624;53.242;6.974;2022-07-18T13:36:21;4.03;;;2.80;;
52730;SDS011;38624;53.242;6.974;2022-07-18T13:38:47;5.07;;;2.67;;
52730;SDS011;38624;53.242;6.974;2022-07-18T13:41:12;5.82;;;2.80;;
52730;SDS011;38624;53.242;6.974;2022-07-18T13:43:39;4.05;;;2.60;;
52730;SDS011;38624;53.242;6.974;2022-07-18T13:46:05;4.75;;;2.70;;
52730;SDS011;38624;53.242;6.974;2022-07-18T13:48:32;3.85;;;2.63;;
52730;SDS011;38624;53.242;6.974;2022-07-18T13:50:58;4.30;;;2.60;;
52730;SDS011;38624;53.242;6.974;2022-07-18T13:53:24;4.18;;;2.60;;
52730;SDS011;38624;53.242;6.974;2022-07-18T13:55:50;3.35;;;2.47;;
52730;SDS011;38624;53.242;6.974;2022-07-18T13:58:16;5.07;;;2.80;;
52730;SDS011;38624;53.242;6.974;2022-07-18T14:00:44;3.20;;;2.40;;
52730;SDS011;38624;53.242;6.974;2022-07-18T14:03:11;4.38;;;2.65;;
52730;SDS011;38624;53.242;6.974;2022-07-18T14:05:37;4.47;;;2.63;;
52730;SDS011;38624;53.242;6.974;2022-07-18T14:08:03;3.88;;;2.58;;
52730;SDS011;38624;53.242;6.974;2022-07-18T14:10:29;6.32;;;2.95;;
52730;SDS011;38624;53.242;6.974;2022-07-18T14:12:55;4.72;;;2.80;;
52730;SDS011;38624;53.242;6.974;2022-07-18T14:15:21;4.82;;;2.80;;
52730;SDS011;38624;53.242;6.974;2022-07-18T14:17:46;6.13;;;2.60;;
52730;SDS011;38624;53.242;6.974;2022-07-18T14:20:12;3.75;;;2.70;;
52730;SDS011;38624;53.242;6.974;2022-07-18T14:22:39;5.88;;;2.78;;
52730;SDS011;38624;53.242;6.974;2022-07-18T14:25:06;5.38;;;2.97;;
52730;SDS011;38624;53.242;6.974;2022-07-18T14:27:33;5.88;;;2.60;;
52730;SDS011;38624;53.242;6.974;2022-07-18T14:29:59;3.72;;;2.70;;
52730;SDS011;38624;53.242;6.974;2022-07-18T14:32:25;6.75;;;2.70;;
52730;SDS011;38624;53.242;6.974;2022-07-18T14:34:51;3.90;;;2.65;;
52730;SDS011;38624;53.242;6.974;2022-07-18T14:37:17;4.40;;;2.67;;
52730;SDS011;38624;53.242;6.974;2022-07-18T14:39:43;3.90;;;2.75;;
52730;SDS011;38624;53.242;6.974;2022-07-18T14:42:09;3.85;;;2.58;;
52730;SDS011;38624;53.242;6.974;2022-07-18T14:44:35;5.13;;;2.78;;
52730;SDS011;38624;53.242;6.974;2022-07-18T14:47:01;4.65;;;2.85;;
52730;SDS011;38624;53.242;6.974;2022-07-18T14:49:27;5.53;;;2.78;;
52730;SDS011;38624;53.242;6.974;2022-07-18T14:51:53;3.05;;;2.30;;
52730;SDS011;38624;53.242;6.974;2022-07-18T14:54:18;5.68;;;2.67;;
52730;SDS011;38624;53.242;6.974;2022-07-18T14:56:44;5.78;;;2.75;;
52730;SDS011;38624;53.242;6.974;2022-07-18T14:59:09;5.18;;;2.60;;
52730;SDS011;38624;53.242;6.974;2022-07-18T15:01:35;3.85;;;2.95;;
52730;SDS011;38624;53.242;6.974;2022-07-18T15:04:01;6.80;;;3.10;;
52730;SDS011;38624;53.242;6.974;2022-07-18T15:06:27;3.58;;;2.83;;
52730;SDS011;38624;53.242;6.974;2022-07-18T15:08:52;4.30;;;2.95;;
52730;SDS011;38624;53.242;6.974;2022-07-18T15:11:18;5.00;;;3.10;;
52730;SDS011;38624;53.242;6.974;2022-07-18T15:13:46;4.00;;;2.97;;
52730;SDS011;38624;53.242;6.974;2022-07-18T15:16:12;7.68;;;3.28;;
52730;SDS011;38624;53.242;6.974;2022-07-18T15:18:38;4.45;;;2.88;;
52730;SDS011;38624;53.242;6.974;2022-07-18T15:21:04;7.60;;;3.20;;
52730;SDS011;38624;53.242;6.974;2022-07-18T15:23:30;5.75;;;2.88;;
52730;SDS011;38624;53.242;6.974;2022-07-18T15:25:56;5.43;;;3.08;;
52730;SDS011;38624;53.242;6.974;2022-07-18T15:28:21;6.35;;;2.78;;
52730;SDS011;38624;53.242;6.974;2022-07-18T15:30:48;5.88;;;3.17;;
52730;SDS011;38624;53.242;6.974;2022-07-18T15:33:14;4.53;;;2.97;;
52730;SDS011;38624;53.242;6.974;2022-07-18T15:35:40;8.07;;;2.97;;
52730;SDS011;38624;53.242;6.974;2022-07-18T15:38:07;8.10;;;3.20;;
52730;SDS011;38624;53.242;6.974;2022-07-18T15:40:34;4.75;;;2.83;;
52730;SDS011;38624;53.242;6.974;2022-07-18T15:43:00;5.15;;;2.83;;
52730;SDS011;38624;53.242;6.974;2022-07-18T15:45:26;5.32;;;2.92;;
52730;SDS011;38624;53.242;6.974;2022-07-18T15:47:52;6.10;;;3.13;;